sensor_id;sensor_type;location;lat;lon;timestamp;temperature;humidity
70475;DHT22;57944;48.722;9.316;2023-07-22T08:44:43;37.20;56.20
70475;DHT22;57944;48.722;9.316;2023-07-22T08:47:17;37.00;54.90
70475;DHT22;57944;48.722;9.316;2023-07-22T08:49:53;36.20;55.70
70475;DHT22;57944;48.722;9.316;2023-07-22T08:52:27;35.50;56.10
70475;DHT22;57944;48.722;9.316;2023-07-22T08:54:59;35.40;55.20
70475;DHT22;57944;48.722;9.316;2023-07-22T08:57:33;35.30;54.60
70475;DHT22;57944;48.722;9.316;2023-07-22T09:00:07;36.40;54.00
70475;DHT22;57944;48.722;9.316;2023-07-22T09:02:40;36.90;52.90
70475;DHT22;57944;48.722;9.316;2023-07-22T09:05:11;37.20;53.10
70475;DHT22;57944;48.722;9.316;2023-07-22T09:07:43;37.90;50.20
70475;DHT22;57944;48.722;9.316;2023-07-22T09:10:15;37.60;49.90
70475;DHT22;57944;48.722;9.316;2023-07-22T09:12:49;38.30;49.90
70475;DHT22;57944;48.722;9.316;2023-07-22T09:15:21;38.00;49.70
70475;DHT22;57944;48.722;9.316;2023-07-22T09:17:51;38.20;49.00
70475;DHT22;57944;48.722;9.316;2023-07-22T09:20:22;38.60;48.10
70475;DHT22;57944;48.722;9.316;2023-07-22T09:22:55;39.20;46.00
70475;DHT22;57944;48.722;9.316;2023-07-22T09:25:40;39.40;45.30
70475;DHT22;57944;48.722;9.316;2023-07-22T09:28:14;39.30;43.30
70475;DHT22;57944;48.722;9.316;2023-07-22T09:30:44;38.90;45.00
70475;DHT22;57944;48.722;9.316;2023-07-22T09:33:20;37.80;44.40
70475;DHT22;57944;48.722;9.316;2023-07-22T09:35:55;35.90;44.80
70475;DHT22;57944;48.722;9.316;2023-07-22T09:38:25;34.50;47.80
70475;DHT22;57944;48.722;9.316;2023-07-22T09:40:56;33.40;48.40
70475;DHT22;57944;48.722;9.316;2023-07-22T09:43:30;32.40;49.00
70475;DHT22;57944;48.722;9.316;2023-07-22T09:46:06;31.40;50.30
70475;DHT22;57944;48.722;9.316;2023-07-22T09:48:41;30.40;51.80
70475;DHT22;57944;48.722;9.316;2023-07-22T09:51:13;29.60;52.50
70475;DHT22;57944;48.722;9.316;2023-07-22T09:53:45;28.70;53.70
70475;DHT22;57944;48.722;9.316;2023-07-22T09:56:16;28.20;54.20
70475;DHT22;57944;48.722;9.316;2023-07-22T09:58:49;28.00;55.20
70475;DHT22;57944;48.722;9.316;2023-07-22T10:01:23;27.80;54.80
70475;DHT22;57944;48.722;9.316;2023-07-22T10:03:55;28.00;56.40
70475;DHT22;57944;48.722;9.316;2023-07-22T10:06:27;28.40;55.80
70475;DHT22;57944;48.722;9.316;2023-07-22T10:09:01;28.20;56.80
70475;DHT22;57944;48.722;9.316;2023-07-22T10:11:35;28.00;55.70
70475;DHT22;57944;48.722;9.316;2023-07-22T10:14:08;28.10;55.80
70475;DHT22;57944;48.722;9.316;2023-07-22T10:16:39;28.30;56.90
70475;DHT22;57944;48.722;9.316;2023-07-22T10:19:11;28.80;55.20
70475;DHT22;57944;48.722;9.316;2023-07-22T10:21:42;30.00;54.20
70475;DHT22;57944;48.722;9.316;2023-07-22T10:24:13;31.70;54.30
70475;DHT22;57944;48.722;9.316;2023-07-22T10:26:43;33.40;48.70
70475;DHT22;57944;48.722;9.316;2023-07-22T10:29:21;33.60;49.00
70475;DHT22;57944;48.722;9.316;2023-07-22T10:31:53;32.80;48.90
70475;DHT22;57944;48.722;9.316;2023-07-22T10:34:24;33.50;49.10
70475;DHT22;57944;48.722;9.316;2023-07-22T10:36:56;32.70;49.10
70475;DHT22;57944;48.722;9.316;2023-07-22T10:39:27;34.10;50.20
70475;DHT22;57944;48.722;9.316;2023-07-22T10:42:01;36.70;47.50
70475;DHT22;57944;48.722;9.316;2023-07-22T10:44:35;36.90;45.00
70475;DHT22;57944;48.722;9.316;2023-07-22T10:47:08;36.60;45.10
70475;DHT22;57944;48.722;9.316;2023-07-22T10:49:45;36.50;45.50
70475;DHT22;57944;48.722;9.316;2023-07-22T10:52:43;36.70;44.90
70475;DHT22;57944;48.722;9.316;2023-07-22T10:55:16;36.10;45.00
70475;DHT22;57944;48.722;9.316;2023-07-22T10:57:51;36.90;44.20
70475;DHT22;57944;48.722;9.316;2023-07-22T11:00:29;36.70;43.50
70475;DHT22;57944;48.722;9.316;2023-07-22T11:03:09;38.00;43.90
70475;DHT22;57944;48.722;9.316;2023-07-22T11:05:47;39.50;42.40
70475;DHT22;57944;48.722;9.316;2023-07-22T11:08:36;36.80;41.50
70475;DHT22;57944;48.722;9.316;2023-07-22T11:11:07;33.70;44.20
70475;DHT22;57944;48.722;9.316;2023-07-22T11:13:38;32.90;46.80
70475;DHT22;57944;48.722;9.316;2023-07-22T11:16:13;31.90;47.40
70475;DHT22;57944;48.722;9.316;2023-07-22T11:18:45;31.50;49.50
70475;DHT22;57944;48.722;9.316;2023-07-22T11:21:16;30.60;50.80
70475;DHT22;57944;48.722;9.316;2023-07-22T11:23:46;30.80;51.30
70475;DHT22;57944;48.722;9.316;2023-07-22T11:26:17;31.60;50.10
70475;DHT22;57944;48.722;9.316;2023-07-22T11:28:48;31.90;50.00
70475;DHT22;57944;48.722;9.316;2023-07-22T11:31:22;32.00;49.70
70475;DHT22;57944;48.722;9.316;2023-07-22T11:33:59;32.20;49.80
70475;DHT22;57944;48.722;9.316;2023-07-22T11:36:30;33.30;48.90
70475;DHT22;57944;48.722;9.316;2023-07-22T11:39:03;33.10;48.30
70475;DHT22;57944;48.722;9.316;2023-07-22T11:41:36;33.00;48.30
70475;DHT22;57944;48.722;9.316;2023-07-22T11:44:09;33.00;48.40
70475;DHT22;57944;48.722;9.316;2023-07-22T11:46:53;33.60;47.10
70475;DHT22;57944;48.722;9.316;2023-07-22T11:49:27;33.80;47.00
70475;DHT22;57944;48.722;9.316;2023-07-22T11:51:59;33.70;47.40
70475;DHT22;57944;48.722;9.316;2023-07-22T11:54:31;35.30;46.80
70475;DHT22;57944;48.722;9.316;2023-07-22T11:57:12;35.60;44.20
70475;DHT22;57944;48.722;9.316;2023-07-22T11:59:45;34.70;45.10
70475;DHT22;57944;48.722;9.316;2023-07-22T12:02:21;34.70;46.10
70475;DHT22;57944;48.722;9.316;2023-07-22T12:04:53;34.80;46.10
70475;DHT22;57944;48.722;9.316;2023-07-22T12:07:24;34.60;46.10
70475;DHT22;57944;48.722;9.316;2023-07-22T12:09:58;34.60;46.30
70475;DHT22;57944;48.722;9.316;2023-07-22T12:12:33;34.00;47.30
70475;DHT22;57944;48.722;9.316;2023-07-22T12:15:09;35.10;47.10
70475;DHT22;57944;48.722;9.316;2023-07-22T12:17:47;36.00;46.80
70475;DHT22;57944;48.722;9.316;2023-07-22T12:20:23;37.20;45.40
70475;DHT22;57944;48.722;9.316;2023-07-22T12:22:56;38.10;44.40
70475;DHT22;57944;48.722;9.316;2023-07-22T12:25:27;38.30;44.00
70475;DHT22;57944;48.722;9.316;2023-07-22T12:27:57;37.00;44.00
70475;DHT22;57944;48.722;9.316;2023-07-22T12:30:28;37.00;44.30
70475;DHT22;57944;48.722;9.316;2023-07-22T12:33:00;37.60;44.10
70475;DHT22;57944;48.722;9.316;2023-07-22T12:35:31;38.50;43.30
70475;DHT22;57944;48.722;9.316;2023-07-22T12:38:01;38.30;42.60
70475;DHT22;57944;48.722;9.316;2023-07-22T12:40:32;36.50;43.80
70475;DHT22;57944;48.722;9.316;2023-07-22T12:43:02;34.00;45.30
70475;DHT22;57944;48.722;9.316;2023-07-22T12:45:32;35.00;46.10
70475;DHT22;57944;48.722;9.316;2023-07-22T12:48:06;36.10;44.70
70475;DHT22;57944;48.722;9.316;2023-07-22T12:50:36;37.10;44.00
70475;DHT22;57944;48.722;9.316;2023-07-22T12:53:06;36.20;44.50
70475;DHT22;57944;48.722;9.316;2023-07-22T12:55:38;36.20;44.30
70475;DHT22;57944;48.722;9.316;2023-07-22T12:58:08;37.00;44.00
70475;DHT22;57944;48.722;9.316;2023-07-22T13:00:38;36.30;43.30
70475;DHT22;57944;48.722;9.316;2023-07-22T13:03:11;35.10;44.60
70475;DHT22;57944;48.722;9.316;2023-07-22T13:05:42;33.40;45.70
70475;DHT22;57944;48.722;9.316;2023-07-22T13:08:15;32.90;46.50
70475;DHT22;57944;48.722;9.316;2023-07-22T13:10:45;31.90;47.60
70475;DHT22;57944;48.722;9.316;2023-07-22T13:13:16;32.70;48.30
70475;DHT22;57944;48.722;9.316;2023-07-22T13:15:46;33.40;46.60
70475;DHT22;57944;48.722;9.316;2023-07-22T13:18:19;34.20;46.20
70475;DHT22;57944;48.722;9.316;2023-07-22T13:20:49;34.00;45.80
70475;DHT22;57944;48.722;9.316;2023-07-22T13:23:19;34.20;45.50
70475;DHT22;57944;48.722;9.316;2023-07-22T13:25:50;34.70;45.40
70475;DHT22;57944;48.722;9.316;2023-07-22T13:28:20;35.40;44.10
70475;DHT22;57944;48.722;9.316;2023-07-22T13:30:50;35.30;43.90
70475;DHT22;57944;48.722;9.316;2023-07-22T13:33:23;34.90;43.70
70475;DHT22;57944;48.722;9.316;2023-07-22T13:35:54;34.70;44.30
70475;DHT22;57944;48.722;9.316;2023-07-22T13:38:24;33.80;44.40
70475;DHT22;57944;48.722;9.316;2023-07-22T13:40:55;33.10;45.40
70475;DHT22;57944;48.722;9.316;2023-07-22T13:43:25;32.20;45.60
70475;DHT22;57944;48.722;9.316;2023-07-22T13:45:56;31.50;46.60
70475;DHT22;57944;48.722;9.316;2023-07-22T13:48:29;32.50;47.10
70475;DHT22;57944;48.722;9.316;2023-07-22T13:50:59;33.40;45.40
70475;DHT22;57944;48.722;9.316;2023-07-22T13:53:30;32.60;45.10
70475;DHT22;57944;48.722;9.316;2023-07-22T13:56:00;32.20;45.40
70475;DHT22;57944;48.722;9.316;2023-07-22T13:58:30;31.70;46.50
70475;DHT22;57944;48.722;9.316;2023-07-22T14:01:01;30.90;47.10
70475;DHT22;57944;48.722;9.316;2023-07-22T14:03:34;30.50;48.00
70475;DHT22;57944;48.722;9.316;2023-07-22T14:06:04;30.80;48.60
70475;DHT22;57944;48.722;9.316;2023-07-22T14:08:35;31.30;47.10
70475;DHT22;57944;48.722;9.316;2023-07-22T14:11:06;31.80;47.20
70475;DHT22;57944;48.722;9.316;2023-07-22T14:13:36;31.90;47.50
70475;DHT22;57944;48.722;9.316;2023-07-22T14:16:06;32.10;46.50
70475;DHT22;57944;48.722;9.316;2023-07-22T14:18:51;32.40;47.10
70475;DHT22;57944;48.722;9.316;2023-07-22T14:21:22;31.80;46.90
70475;DHT22;57944;48.722;9.316;2023-07-22T14:23:52;31.80;47.10
70475;DHT22;57944;48.722;9.316;2023-07-22T14:26:23;31.10;47.30
70475;DHT22;57944;48.722;9.316;2023-07-22T14:28:53;30.20;47.50
70475;DHT22;57944;48.722;9.316;2023-07-22T14:31:23;30.00;48.80
70475;DHT22;57944;48.722;9.316;2023-07-22T14:33:57;30.60;47.90
70475;DHT22;57944;48.722;9.316;2023-07-22T14:36:27;31.70;47.00
70475;DHT22;57944;48.722;9.316;2023-07-22T14:38:57;32.00;46.50
70475;DHT22;57944;48.722;9.316;2023-07-22T14:41:27;32.40;46.30
70475;DHT22;57944;48.722;9.316;2023-07-22T14:43:59;32.10;45.70
70475;DHT22;57944;48.722;9.316;2023-07-22T14:46:29;32.30;46.00
70475;DHT22;57944;48.722;9.316;2023-07-22T14:49:03;32.30;45.80
70475;DHT22;57944;48.722;9.316;2023-07-22T14:51:36;32.50;45.50
70475;DHT22;57944;48.722;9.316;2023-07-22T14:54:07;30.90;46.50
70475;DHT22;57944;48.722;9.316;2023-07-22T14:56:37;31.00;47.70
70475;DHT22;57944;48.722;9.316;2023-07-22T14:59:08;31.30;47.70
70475;DHT22;57944;48.722;9.316;2023-07-22T15:01:38;31.70;47.00
70475;DHT22;57944;48.722;9.316;2023-07-22T15:04:12;31.50;47.20
70475;DHT22;57944;48.722;9.316;2023-07-22T15:06:42;31.60;47.10
70475;DHT22;57944;48.722;9.316;2023-07-22T15:09:12;31.20;46.20
70475;DHT22;57944;48.722;9.316;2023-07-22T15:11:42;31.00;46.70
70475;DHT22;57944;48.722;9.316;2023-07-22T15:14:13;30.40;47.60
70475;DHT22;57944;48.722;9.316;2023-07-22T15:16:43;29.50;48.80
70475;DHT22;57944;48.722;9.316;2023-07-22T15:19:16;29.20;50.20
70475;DHT22;57944;48.722;9.316;2023-07-22T15:21:46;28.90;50.60
70475;DHT22;57944;48.722;9.316;2023-07-22T15:24:17;28.90;49.80
70475;DHT22;57944;48.722;9.316;2023-07-22T15:26:47;28.60;50.00
70475;DHT22;57944;48.722;9.316;2023-07-22T15:29:17;28.60;49.60
70475;DHT22;57944;48.722;9.316;2023-07-22T15:31:49;28.70;50.30
70475;DHT22;57944;48.722;9.316;2023-07-22T15:34:22;28.80;50.70
70475;DHT22;57944;48.722;9.316;2023-07-22T15:36:53;28.80;50.50
70475;DHT22;57944;48.722;9.316;2023-07-22T15:39:23;28.80;50.70
70475;DHT22;57944;48.722;9.316;2023-07-22T15:41:53;29.10;50.60
70475;DHT22;57944;48.722;9.316;2023-07-22T15:44:23;29.40;51.00
70475;DHT22;57944;48.722;9.316;2023-07-22T15:46:55;29.30;51.10
70475;DHT22;57944;48.722;9.316;2023-07-22T15:49:28;29.00;51.00
70475;DHT22;57944;48.722;9.316;2023-07-22T15:51:58;28.50;51.50
70475;DHT22;57944;48.722;9.316;2023-07-22T15:54:28;28.30;52.30
70475;DHT22;57944;48.722;9.316;2023-07-22T15:56:59;28.30;51.70
70475;DHT22;57944;48.722;9.316;2023-07-22T15:59:29;28.10;52.30
70475;DHT22;57944;48.722;9.316;2023-07-22T16:02:00;28.50;52.80
70475;DHT22;57944;48.722;9.316;2023-07-22T16:04:35;28.20;52.20
70475;DHT22;57944;48.722;9.316;2023-07-22T16:07:08;27.80;52.40
70475;DHT22;57944;48.722;9.316;2023-07-22T16:09:38;27.70;52.30
70475;DHT22;57944;48.722;9.316;2023-07-22T16:12:09;27.60;52.90
70475;DHT22;57944;48.722;9.316;2023-07-22T16:14:36;27.50;52.70
70475;DHT22;57944;48.722;9.316;2023-07-22T16:17:07;27.70;52.80
70475;DHT22;57944;48.722;9.316;2023-07-22T16:19:40;28.10;52.20
70475;DHT22;57944;48.722;9.316;2023-07-22T16:22:10;27.90;51.20
70475;DHT22;57944;48.722;9.316;2023-07-22T16:24:40;27.90;51.80
70475;DHT22;57944;48.722;9.316;2023-07-22T16:27:11;28.00;51.80
70475;DHT22;57944;48.722;9.316;2023-07-22T16:29:41;27.90;52.20
70475;DHT22;57944;48.722;9.316;2023-07-22T16:32:11;27.80;52.50
70475;DHT22;57944;48.722;9.316;2023-07-22T16:34:44;28.00;52.50
70475;DHT22;57944;48.722;9.316;2023-07-22T16:37:14;28.30;52.60
70475;DHT22;57944;48.722;9.316;2023-07-22T16:39:45;28.20;52.70
70475;DHT22;57944;48.722;9.316;2023-07-22T16:42:15;28.20;52.60
70475;DHT22;57944;48.722;9.316;2023-07-22T16:44:45;28.10;53.10
70475;DHT22;57944;48.722;9.316;2023-07-22T16:47:16;27.90;52.60
70475;DHT22;57944;48.722;9.316;2023-07-22T16:49:49;27.50;53.10
70475;DHT22;57944;48.722;9.316;2023-07-22T16:52:19;27.30;53.30
70475;DHT22;57944;48.722;9.316;2023-07-22T16:54:49;27.10;53.90
70475;DHT22;57944;48.722;9.316;2023-07-22T16:57:20;27.30;53.90
70475;DHT22;57944;48.722;9.316;2023-07-22T16:59:50;27.40;54.30
70475;DHT22;57944;48.722;9.316;2023-07-22T17:02:20;27.50;53.70
70475;DHT22;57944;48.722;9.316;2023-07-22T17:04:54;27.40;53.60
70475;DHT22;57944;48.722;9.316;2023-07-22T17:07:24;27.70;53.90
70475;DHT22;57944;48.722;9.316;2023-07-22T17:09:55;27.90;53.90
70475;DHT22;57944;48.722;9.316;2023-07-22T17:12:25;28.20;52.80
70475;DHT22;57944;48.722;9.316;2023-07-22T17:14:56;28.20;52.60
70475;DHT22;57944;48.722;9.316;2023-07-22T17:17:26;28.00;52.50
70475;DHT22;57944;48.722;9.316;2023-07-22T17:19:59;28.00;53.00
70475;DHT22;57944;48.722;9.316;2023-07-22T17:22:29;28.00;53.30
70475;DHT22;57944;48.722;9.316;2023-07-22T17:25:00;28.40;53.30
70475;DHT22;57944;48.722;9.316;2023-07-22T17:27:30;28.60;52.60
70475;DHT22;57944;48.722;9.316;2023-07-22T17:30:00;28.60;52.50
70475;DHT22;57944;48.722;9.316;2023-07-22T17:32:31;28.70;52.40
70475;DHT22;57944;48.722;9.316;2023-07-22T17:35:05;28.80;52.00
70475;DHT22;57944;48.722;9.316;2023-07-22T17:37:36;28.70;51.60
70475;DHT22;57944;48.722;9.316;2023-07-22T17:40:07;29.00;52.40
70475;DHT22;57944;48.722;9.316;2023-07-22T17:42:38;29.00;52.30
70475;DHT22;57944;48.722;9.316;2023-07-22T17:45:09;29.10;52.00
70475;DHT22;57944;48.722;9.316;2023-07-22T17:47:39;29.20;52.00
70475;DHT22;57944;48.722;9.316;2023-07-22T17:50:12;29.00;51.80
70475;DHT22;57944;48.722;9.316;2023-07-22T17:52:43;29.10;52.30
70475;DHT22;57944;48.722;9.316;2023-07-22T17:55:13;29.40;52.30
70475;DHT22;57944;48.722;9.316;2023-07-22T17:57:44;29.60;51.60
70475;DHT22;57944;48.722;9.316;2023-07-22T18:00:15;29.20;51.30
70475;DHT22;57944;48.722;9.316;2023-07-22T18:02:45;29.00;52.30
70475;DHT22;57944;48.722;9.316;2023-07-22T18:05:18;29.20;52.50
70475;DHT22;57944;48.722;9.316;2023-07-22T18:07:52;29.10;51.60
70475;DHT22;57944;48.722;9.316;2023-07-22T18:10:22;29.20;51.80
70475;DHT22;57944;48.722;9.316;2023-07-22T18:12:53;28.70;51.40
70475;DHT22;57944;48.722;9.316;2023-07-22T18:15:23;28.30;51.90
70475;DHT22;57944;48.722;9.316;2023-07-22T18:17:53;28.30;52.10
70475;DHT22;57944;48.722;9.316;2023-07-22T18:20:26;28.00;52.20
70475;DHT22;57944;48.722;9.316;2023-07-22T18:22:56;27.70;52.80
70475;DHT22;57944;48.722;9.316;2023-07-22T18:25:27;27.10;53.20
70475;DHT22;57944;48.722;9.316;2023-07-22T18:27:57;26.70;54.30
70475;DHT22;57944;48.722;9.316;2023-07-22T18:30:28;26.60;54.70
70475;DHT22;57944;48.722;9.316;2023-07-22T18:32:58;26.70;55.00
70475;DHT22;57944;48.722;9.316;2023-07-22T18:35:31;26.60;55.30
70475;DHT22;57944;48.722;9.316;2023-07-22T18:38:01;26.50;55.40
70475;DHT22;57944;48.722;9.316;2023-07-22T18:40:32;26.30;55.80
70475;DHT22;57944;48.722;9.316;2023-07-22T18:43:02;25.90;56.60
70475;DHT22;57944;48.722;9.316;2023-07-22T18:45:33;25.60;56.50
70475;DHT22;57944;48.722;9.316;2023-07-22T18:48:04;25.20;57.10
70475;DHT22;57944;48.722;9.316;2023-07-22T18:50:37;24.50;57.80
70475;DHT22;57944;48.722;9.316;2023-07-22T18:53:08;24.10;58.70
70475;DHT22;57944;48.722;9.316;2023-07-22T18:55:38;23.80;59.40
70475;DHT22;57944;48.722;9.316;2023-07-22T18:58:08;23.50;60.10
70475;DHT22;57944;48.722;9.316;2023-07-22T19:00:39;23.30;61.50
70475;DHT22;57944;48.722;9.316;2023-07-22T19:03:09;23.10;62.10
70475;DHT22;57944;48.722;9.316;2023-07-22T19:05:42;22.90;63.20
70475;DHT22;57944;48.722;9.316;2023-07-22T19:08:12;22.70;64.00
70475;DHT22;57944;48.722;9.316;2023-07-22T19:10:45;22.50;65.50
70475;DHT22;57944;48.722;9.316;2023-07-22T19:13:16;22.30;66.70
70475;DHT22;57944;48.722;9.316;2023-07-22T19:15:46;22.00;67.40
70475;DHT22;57944;48.722;9.316;2023-07-22T19:18:17;21.90;68.20
70475;DHT22;57944;48.722;9.316;2023-07-22T19:21:01;21.70;69.50
70475;DHT22;57944;48.722;9.316;2023-07-22T19:23:32;21.50;71.60
70475;DHT22;57944;48.722;9.316;2023-07-22T19:26:02;21.40;74.50
70475;DHT22;57944;48.722;9.316;2023-07-22T19:28:33;21.20;73.50
70475;DHT22;57944;48.722;9.316;2023-07-22T19:31:03;20.90;73.90
70475;DHT22;57944;48.722;9.316;2023-07-22T19:33:33;20.70;74.10
70475;DHT22;57944;48.722;9.316;2023-07-22T19:36:08;20.50;75.50
70475;DHT22;57944;48.722;9.316;2023-07-22T19:38:41;20.50;77.40
70475;DHT22;57944;48.722;9.316;2023-07-22T19:41:12;20.30;78.70
70475;DHT22;57944;48.722;9.316;2023-07-22T19:43:43;20.30;79.00
70475;DHT22;57944;48.722;9.316;2023-07-22T19:46:16;20.10;79.70
70475;DHT22;57944;48.722;9.316;2023-07-22T19:48:47;20.00;81.50
70475;DHT22;57944;48.722;9.316;2023-07-22T19:51:20;19.90;82.00
70475;DHT22;57944;48.722;9.316;2023-07-22T19:53:51;19.80;84.10
70475;DHT22;57944;48.722;9.316;2023-07-22T19:56:21;19.80;85.30
70475;DHT22;57944;48.722;9.316;2023-07-22T19:58:52;19.70;86.30
70475;DHT22;57944;48.722;9.316;2023-07-22T20:01:22;19.70;89.80
70475;DHT22;57944;48.722;9.316;2023-07-22T20:03:53;19.60;88.50
70475;DHT22;57944;48.722;9.316;2023-07-22T20:06:26;19.40;87.50
70475;DHT22;57944;48.722;9.316;2023-07-22T20:08:56;19.20;89.50
70475;DHT22;57944;48.722;9.316;2023-07-22T20:11:26;19.20;90.70
70475;DHT22;57944;48.722;9.316;2023-07-22T20:13:57;19.20;90.50
70475;DHT22;57944;48.722;9.316;2023-07-22T20:16:31;18.90;91.90
70475;DHT22;57944;48.722;9.316;2023-07-22T20:19:01;18.90;92.80
70475;DHT22;57944;48.722;9.316;2023-07-22T20:21:34;19.00;93.10
70475;DHT22;57944;48.722;9.316;2023-07-22T20:24:05;19.00;93.70
70475;DHT22;57944;48.722;9.316;2023-07-22T20:26:35;19.10;94.50
70475;DHT22;57944;48.722;9.316;2023-07-22T20:29:05;18.90;94.60
70475;DHT22;57944;48.722;9.316;2023-07-22T20:31:36;18.80;95.40
70475;DHT22;57944;48.722;9.316;2023-07-22T20:34:06;18.70;96.00
70475;DHT22;57944;48.722;9.316;2023-07-22T20:36:39;18.90;96.20
70475;DHT22;57944;48.722;9.316;2023-07-22T20:39:09;18.60;95.80
70475;DHT22;57944;48.722;9.316;2023-07-22T20:41:40;18.50;96.20
70475;DHT22;57944;48.722;9.316;2023-07-22T20:44:11;18.60;96.20
70475;DHT22;57944;48.722;9.316;2023-07-22T20:46:41;18.70;96.40
70475;DHT22;57944;48.722;9.316;2023-07-22T20:49:12;18.90;96.30
70475;DHT22;57944;48.722;9.316;2023-07-22T20:51:44;18.90;96.80
70475;DHT22;57944;48.722;9.316;2023-07-22T20:54:15;18.80;97.30
70475;DHT22;57944;48.722;9.316;2023-07-22T20:56:46;18.70;97.30
70475;DHT22;57944;48.722;9.316;2023-07-22T20:59:16;18.70;98.00
70475;DHT22;57944;48.722;9.316;2023-07-22T21:01:47;18.60;98.30
70475;DHT22;57944;48.722;9.316;2023-07-22T21:04:17;18.60;99.70
70475;DHT22;57944;48.722;9.316;2023-07-22T21:06:50;18.70;99.80
70475;DHT22;57944;48.722;9.316;2023-07-22T21:09:20;18.70;99.70
70475;DHT22;57944;48.722;9.316;2023-07-22T21:11:51;18.60;99.90
70475;DHT22;57944;48.722;9.316;2023-07-22T21:14:21;18.80;99.90
70475;DHT22;57944;48.722;9.316;2023-07-22T21:16:51;18.80;99.90
70475;DHT22;57944;48.722;9.316;2023-07-22T21:19:22;18.90;99.90
70475;DHT22;57944;48.722;9.316;2023-07-22T21:21:55;18.80;99.90
70475;DHT22;57944;48.722;9.316;2023-07-22T21:24:26;18.80;99.90
70475;DHT22;57944;48.722;9.316;2023-07-22T21:26:56;19.00;99.90
70475;DHT22;57944;48.722;9.316;2023-07-22T21:29:27;19.10;99.90
70475;DHT22;57944;48.722;9.316;2023-07-22T21:31:58;19.00;99.90
70475;DHT22;57944;48.722;9.316;2023-07-22T21:34:29;19.10;99.90
70475;DHT22;57944;48.722;9.316;2023-07-22T21:37:03;19.10;99.70
70475;DHT22;57944;48.722;9.316;2023-07-22T21:39:33;19.10;99.90
70475;DHT22;57944;48.722;9.316;2023-07-22T21:42:04;19.10;99.90
70475;DHT22;57944;48.722;9.316;2023-07-22T21:44:35;18.90;99.90
70475;DHT22;57944;48.722;9.316;2023-07-22T21:47:05;18.80;99.90
70475;DHT22;57944;48.722;9.316;2023-07-22T21:49:36;18.50;99.90
70475;DHT22;57944;48.722;9.316;2023-07-22T21:52:09;18.40;99.90
70475;DHT22;57944;48.722;9.316;2023-07-22T21:54:39;18.10;99.90
70475;DHT22;57944;48.722;9.316;2023-07-22T21:57:09;17.90;99.90
70475;DHT22;57944;48.722;9.316;2023-07-22T21:59:39;17.90;99.90
70475;DHT22;57944;48.722;9.316;2023-07-22T22:02:10;17.90;99.90
70475;DHT22;57944;48.722;9.316;2023-07-22T22:04:40;17.90;99.90
70475;DHT22;57944;48.722;9.316;2023-07-22T22:07:13;17.90;99.90
70475;DHT22;57944;48.722;9.316;2023-07-22T22:09:43;17.70;99.90
70475;DHT22;57944;48.722;9.316;2023-07-22T22:12:14;17.50;99.90
70475;DHT22;57944;48.722;9.316;2023-07-22T22:14:44;17.50;99.90
70475;DHT22;57944;48.722;9.316;2023-07-22T22:17:14;17.50;99.90
70475;DHT22;57944;48.722;9.316;2023-07-22T22:19:44;17.50;99.90
70475;DHT22;57944;48.722;9.316;2023-07-22T22:22:17;17.50;99.90
70475;DHT22;57944;48.722;9.316;2023-07-22T22:24:48;17.40;99.90
70475;DHT22;57944;48.722;9.316;2023-07-22T22:27:18;17.40;99.90
70475;DHT22;57944;48.722;9.316;2023-07-22T22:29:49;17.50;99.90
70475;DHT22;57944;48.722;9.316;2023-07-22T22:32:19;17.40;99.90
70475;DHT22;57944;48.722;9.316;2023-07-22T22:34:50;17.40;99.90
70475;DHT22;57944;48.722;9.316;2023-07-22T22:37:23;17.40;99.90
70475;DHT22;57944;48.722;9.316;2023-07-22T22:39:53;17.40;99.90
70475;DHT22;57944;48.722;9.316;2023-07-22T22:42:24;17.40;99.90
70475;DHT22;57944;48.722;9.316;2023-07-22T22:44:55;17.40;99.90
70475;DHT22;57944;48.722;9.316;2023-07-22T22:47:25;17.40;99.90
70475;DHT22;57944;48.722;9.316;2023-07-22T22:49:55;17.30;99.90
70475;DHT22;57944;48.722;9.316;2023-07-22T22:52:28;17.20;99.90
70475;DHT22;57944;48.722;9.316;2023-07-22T22:55:00;17.20;99.90
70475;DHT22;57944;48.722;9.316;2023-07-22T22:57:30;17.30;99.90
70475;DHT22;57944;48.722;9.316;2023-07-22T23:00:01;17.30;99.90
70475;DHT22;57944;48.722;9.316;2023-07-22T23:02:32;17.30;99.90
70475;DHT22;57944;48.722;9.316;2023-07-22T23:05:02;17.30;99.90
70475;DHT22;57944;48.722;9.316;2023-07-22T23:07:36;17.30;99.90
70475;DHT22;57944;48.722;9.316;2023-07-22T23:10:07;17.40;99.90
70475;DHT22;57944;48.722;9.316;2023-07-22T23:12:40;17.30;99.90
70475;DHT22;57944;48.722;9.316;2023-07-22T23:15:10;17.40;99.90
70475;DHT22;57944;48.722;9.316;2023-07-22T23:17:40;17.40;99.90
70475;DHT22;57944;48.722;9.316;2023-07-22T23:20:11;17.50;99.90
70475;DHT22;57944;48.722;9.316;2023-07-22T23:22:44;17.40;99.90
70475;DHT22;57944;48.722;9.316;2023-07-22T23:25:15;17.30;99.90
70475;DHT22;57944;48.722;9.316;2023-07-22T23:27:45;17.30;99.90
70475;DHT22;57944;48.722;9.316;2023-07-22T23:30:15;17.20;99.90
70475;DHT22;57944;48.722;9.316;2023-07-22T23:32:46;17.10;99.90
70475;DHT22;57944;48.722;9.316;2023-07-22T23:35:16;17.10;99.90
70475;DHT22;57944;48.722;9.316;2023-07-22T23:37:49;17.10;99.90
70475;DHT22;57944;48.722;9.316;2023-07-22T23:40:20;17.20;99.90
70475;DHT22;57944;48.722;9.316;2023-07-22T23:42:50;17.20;99.90
70475;DHT22;57944;48.722;9.316;2023-07-22T23:45:20;17.00;99.90
70475;DHT22;57944;48.722;9.316;2023-07-22T23:47:51;17.10;99.90
70475;DHT22;57944;48.722;9.316;2023-07-22T23:50:21;17.10;99.90
70475;DHT22;57944;48.722;9.316;2023-07-22T23:52:54;17.10;99.90
70475;DHT22;57944;48.722;9.316;2023-07-22T23:55:24;17.20;99.90
70475;DHT22;57944;48.722;9.316;2023-07-22T23:57:55;17.30;99.90
